Time;durP1;ratioP1;P1;durP2;ratioP2;P2;SDS_P1;SDS_P2;PMS_P1;PMS_P2;Temp;Humidity;BMP_temperature;BMP_pressure;BME280_temperature;BME280_humidity;BME280_pressure;Samples;Min_cycle;Max_cycle;Signal;HPM_P1;HPM_P2
2023/12/24 00:01:16;;;;;;;11.40;7.10;;;;;;;-0.17;100.00;95271.73;107412;1278;22675;-87
2023/12/24 00:04:00;;;;;;;6.00;5.10;;;;;;;-0.17;100.00;95265.75;107387;1277;138477;-87
2023/12/24 00:06:28;;;;;;;6.40;5.50;;;;;;;-0.18;100.00;95273.17;107327;1279;22489;-88
2023/12/24 00:08:54;;;;;;;4.90;4.50;;;;;;;-0.18;100.00;95269.73;107169;1272;138872;-88
2023/12/24 00:11:21;;;;;;;3.80;3.40;;;;;;;-0.16;100.00;95266.02;107326;1272;23707;-88
2023/12/24 00:13:48;;;;;;;4.80;4.30;;;;;;;-0.15;100.00;95263.72;107090;1271;138456;-88
2023/12/24 00:16:14;;;;;;;4.50;4.10;;;;;;;-0.15;100.00;95257.11;107381;1275;25527;-88
2023/12/24 00:18:41;;;;;;;5.80;4.30;;;;;;;-0.16;100.00;95254.07;107408;1270;24365;-88
2023/12/24 00:21:08;;;;;;;5.20;4.60;;;;;;;-0.17;100.00;95255.86;107156;1278;138883;-88
2023/12/24 00:23:35;;;;;;;4.00;3.60;;;;;;;-0.18;100.00;95253.55;107390;1277;22743;-88
2023/12/24 00:26:01;;;;;;;4.10;3.00;;;;;;;-0.17;100.00;95258.23;107273;1278;138075;-88
2023/12/24 00:28:28;;;;;;;4.20;3.80;;;;;;;-0.17;100.00;95268.95;107187;1272;26089;-88
2023/12/24 00:30:54;;;;;;;4.50;3.90;;;;;;;-0.18;100.00;95272.60;107342;1278;22468;-89
2023/12/24 00:33:21;;;;;;;3.50;3.20;;;;;;;-0.16;100.00;95276.23;107452;1277;138411;-88
2023/12/24 00:35:48;;;;;;;3.30;2.90;;;;;;;-0.15;100.00;95283.79;107325;1272;25647;-88
2023/12/24 00:38:14;;;;;;;4.40;3.70;;;;;;;-0.15;100.00;95296.59;107248;1278;138081;-88
2023/12/24 00:40:41;;;;;;;3.10;2.80;;;;;;;-0.18;100.00;95305.37;107348;1273;22634;-89
2023/12/24 00:43:08;;;;;;;3.30;2.60;;;;;;;-0.25;100.00;95308.55;107398;1274;22663;-88
2023/12/24 00:45:36;;;;;;;2.40;2.20;;;;;;;-0.29;100.00;95307.91;107261;1272;138622;-89
2023/12/24 00:48:03;;;;;;;2.70;2.40;;;;;;;-0.32;100.00;95305.59;107528;1278;24244;-88
2023/12/24 00:50:30;;;;;;;2.60;2.40;;;;;;;-0.31;100.00;95308.05;107137;1274;138013;-88
2023/12/24 00:52:56;;;;;;;2.40;2.20;;;;;;;-0.30;100.00;95310.02;107283;1275;25597;-88
2023/12/24 00:55:23;;;;;;;2.60;2.30;;;;;;;-0.30;100.00;95307.30;107451;1275;22546;-89
2023/12/24 00:57:50;;;;;;;2.90;2.50;;;;;;;-0.31;100.00;95314.23;107405;1270;137949;-89
2023/12/24 01:00:17;;;;;;;4.10;3.40;;;;;;;-0.31;100.00;95319.34;107389;1276;22558;-88
2023/12/24 01:02:43;;;;;;;3.10;2.80;;;;;;;-0.32;100.00;95326.20;107380;1270;137862;-89
2023/12/24 01:05:10;;;;;;;2.80;2.60;;;;;;;-0.32;100.00;95332.98;107569;1273;22657;-89
2023/12/24 01:07:36;;;;;;;3.00;2.80;;;;;;;-0.31;100.00;95335.78;107422;1275;22534;-89
2023/12/24 01:10:05;;;;;;;3.00;2.30;;;;;;;-0.31;100.00;95338.36;107386;1278;137882;-89
2023/12/24 01:12:32;;;;;;;3.10;2.70;;;;;;;-0.31;100.00;95340.05;107363;1278;22596;-88
2023/12/24 01:14:59;;;;;;;3.80;2.50;;;;;;;-0.30;100.00;95338.28;107299;1278;138591;-88
2023/12/24 01:17:26;;;;;;;2.70;2.50;;;;;;;-0.28;100.00;95331.85;107249;1276;22554;-89
2023/12/24 01:19:52;;;;;;;2.60;2.40;;;;;;;-0.27;100.00;95338.85;107244;1273;138037;-89
2023/12/24 01:22:19;;;;;;;3.30;2.70;;;;;;;-0.27;100.00;95348.04;107237;1272;24331;-88
2023/12/24 01:24:45;;;;;;;3.30;3.00;;;;;;;-0.27;100.00;95355.20;107150;1275;23440;-89
2023/12/24 01:27:12;;;;;;;4.60;3.30;;;;;;;-0.27;100.00;95356.40;107142;1272;138325;-89
2023/12/24 01:29:39;;;;;;;3.10;2.80;;;;;;;-0.26;100.00;95361.73;107315;1278;22656;-89
2023/12/24 01:32:06;;;;;;;4.80;3.40;;;;;;;-0.28;100.00;95361.38;107090;1274;140383;-89
2023/12/24 01:34:33;;;;;;;3.30;3.00;;;;;;;-0.28;100.00;95360.92;107404;1272;23468;-89
2023/12/24 01:37:00;;;;;;;3.80;3.40;;;;;;;-0.28;100.00;95366.67;107251;1277;22583;-89
2023/12/24 01:39:26;;;;;;;3.40;2.90;;;;;;;-0.30;100.00;95370.63;107168;1278;138371;-89
2023/12/24 01:41:53;;;;;;;3.30;3.00;;;;;;;-0.33;100.00;95367.13;107187;1255;22537;-88
2023/12/24 01:44:19;;;;;;;2.50;2.30;;;;;;;-0.36;100.00;95366.67;107099;1278;138818;-89
2023/12/24 01:46:50;;;;;;;3.20;2.20;;;;;;;-0.37;100.00;95373.48;107372;1278;22897;-88
2023/12/24 01:49:17;;;;;;;2.50;2.30;;;;;;;-0.38;100.00;95377.79;107337;1275;24374;-89
2023/12/24 01:51:43;;;;;;;2.80;2.60;;;;;;;-0.38;100.00;95377.98;107031;1278;138035;-88
2023/12/24 01:54:10;;;;;;;3.20;2.90;;;;;;;-0.38;100.00;95377.92;107424;1271;25310;-88
2023/12/24 01:56:39;;;;;;;3.00;2.70;;;;;;;-0.37;100.00;95380.38;107204;1278;138661;-89
2023/12/24 01:59:09;;;;;;;2.90;2.40;;;;;;;-0.38;100.00;95372.33;107091;1278;25477;-88
2023/12/24 02:01:36;;;;;;;4.40;3.40;;;;;;;-0.40;100.00;95371.54;107204;1272;22561;-88
2023/12/24 02:04:03;;;;;;;3.30;3.00;;;;;;;-0.41;100.00;95373.53;107217;1269;137901;-88
2023/12/24 02:06:32;;;;;;;4.00;3.20;;;;;;;-0.43;100.00;95373.30;107451;1278;26789;-89
2023/12/24 02:08:58;;;;;;;3.60;2.60;;;;;;;-0.44;100.00;95371.23;107326;1275;138234;-88
2023/12/24 02:11:25;;;;;;;3.30;2.80;;;;;;;-0.46;100.00;95377.90;107693;1270;22588;-89
2023/12/24 02:13:52;;;;;;;3.30;2.30;;;;;;;-0.47;100.00;95381.15;107374;1278;138235;-88
2023/12/24 02:16:20;;;;;;;3.30;2.90;;;;;;;-0.46;100.00;95388.82;107466;1272;24599;-88
2023/12/24 02:18:47;;;;;;;3.50;3.20;;;;;;;-0.47;100.00;95389.20;107299;1276;22626;-89
2023/12/24 02:21:14;;;;;;;3.50;3.20;;;;;;;-0.46;100.00;95382.15;107167;1278;138033;-89
2023/12/24 02:23:40;;;;;;;5.10;3.00;;;;;;;-0.44;100.00;95376.88;107389;1278;22715;-88
2023/12/24 02:26:16;;;;;;;2.80;2.60;;;;;;;-0.44;100.00;95377.70;107312;1275;138245;-87
2023/12/24 02:28:42;;;;;;;4.40;3.60;;;;;;;-0.45;100.00;95371.16;107259;1273;25591;-89
2023/12/24 02:31:10;;;;;;;4.20;2.90;;;;;;;-0.45;100.00;95376.93;107495;1272;25400;-88
2023/12/24 02:33:40;;;;;;;4.20;3.50;;;;;;;-0.46;100.00;95380.27;107430;1272;138163;-88
2023/12/24 02:36:10;;;;;;;3.40;3.10;;;;;;;-0.47;100.00;95377.96;107524;1271;23926;-88
2023/12/24 02:38:37;;;;;;;3.30;2.90;;;;;;;-0.48;100.00;95376.68;107138;1277;137958;-88
2023/12/24 02:41:04;;;;;;;3.30;3.00;;;;;;;-0.46;100.00;95373.07;107424;1277;23364;-88
2023/12/24 02:43:31;;;;;;;4.20;3.00;;;;;;;-0.43;100.00;95377.94;107453;1275;22545;-88
2023/12/24 02:45:59;;;;;;;3.40;2.90;;;;;;;-0.42;100.00;95376.16;107393;1278;138421;-88
2023/12/24 02:48:26;;;;;;;3.60;3.00;;;;;;;-0.41;100.00;95374.63;107700;1256;23070;-88
2023/12/24 02:50:53;;;;;;;4.00;3.20;;;;;;;-0.38;100.00;95374.19;107316;1278;138580;-88
2023/12/24 02:53:19;;;;;;;3.80;2.70;;;;;;;-0.36;100.00;95366.16;107425;1278;23426;-88
2023/12/24 02:55:46;;;;;;;3.40;3.10;;;;;;;-0.35;100.00;95368.98;107426;1278;138533;-89
2023/12/24 02:58:13;;;;;;;3.20;2.90;;;;;;;-0.35;100.00;95374.06;107433;1272;23236;-88
2023/12/24 03:00:40;;;;;;;7.00;4.30;;;;;;;-0.33;100.00;95378.55;107517;1267;22620;-87
2023/12/24 03:03:06;;;;;;;3.90;3.50;;;;;;;-0.34;100.00;95378.58;107408;1272;138604;-88
2023/12/24 03:05:34;;;;;;;3.70;3.30;;;;;;;-0.35;100.00;95372.07;107588;1262;22673;-88
2023/12/24 03:08:01;;;;;;;3.10;2.80;;;;;;;-0.35;100.00;95366.63;107323;1272;138313;-88
2023/12/24 03:10:28;;;;;;;4.00;3.10;;;;;;;-0.32;100.00;95365.70;107354;1272;24360;-88
2023/12/24 03:12:54;;;;;;;4.30;3.30;;;;;;;-0.31;100.00;95369.66;107391;1272;24360;-89
2023/12/24 03:15:21;;;;;;;3.00;2.70;;;;;;;-0.29;100.00;95364.60;107213;1277;138384;-88
2023/12/24 03:17:48;;;;;;;2.90;2.60;;;;;;;-0.28;100.00;95363.31;107351;1278;22576;-88
2023/12/24 03:20:14;;;;;;;2.90;2.60;;;;;;;-0.27;100.00;95361.35;107311;1262;138075;-88
2023/12/24 03:22:41;;;;;;;2.90;2.60;;;;;;;-0.25;100.00;95362.48;107390;1270;22624;-88
2023/12/24 03:25:08;;;;;;;3.00;2.60;;;;;;;-0.22;100.00;95358.69;107333;1266;22789;-88
2023/12/24 03:27:34;;;;;;;5.80;3.00;;;;;;;-0.20;100.00;95355.42;107160;1272;138074;-88
2023/12/24 03:30:01;;;;;;;3.20;2.00;;;;;;;-0.20;100.00;95353.16;107377;1278;22648;-88
2023/12/24 03:32:28;;;;;;;2.60;2.30;;;;;;;-0.19;100.00;95356.33;107230;1274;138687;-88
2023/12/24 03:34:55;;;;;;;4.00;3.30;;;;;;;-0.19;100.00;95357.02;107384;1278;22738;-89
2023/12/24 03:37:21;;;;;;;5.10;3.30;;;;;;;-0.20;100.00;95354.91;107286;1272;22556;-88
2023/12/24 03:39:48;;;;;;;4.70;3.70;;;;;;;-0.21;100.00;95358.55;107061;1278;137956;-89
2023/12/24 03:42:15;;;;;;;4.80;3.80;;;;;;;-0.25;100.00;95361.11;107315;1278;24063;-88
2023/12/24 03:44:43;;;;;;;4.40;3.70;;;;;;;-0.26;100.00;95365.50;107352;1275;138583;-88
2023/12/24 03:47:09;;;;;;;3.90;3.10;;;;;;;-0.24;100.00;95363.96;107339;1275;22578;-88
2023/12/24 03:49:36;;;;;;;4.20;3.80;;;;;;;-0.23;100.00;95364.20;107369;1272;26891;-89
2023/12/24 03:52:03;;;;;;;4.50;3.50;;;;;;;-0.22;100.00;95362.52;107317;1275;137634;-88
2023/12/24 03:54:29;;;;;;;5.10;3.50;;;;;;;-0.21;100.00;95356.98;107216;1272;22779;-88
2023/12/24 03:56:56;;;;;;;4.00;3.20;;;;;;;-0.20;100.00;95353.52;107116;1273;138927;-88
2023/12/24 03:59:23;;;;;;;3.70;2.70;;;;;;;-0.21;100.00;95352.48;107274;1278;150476;-88
2023/12/24 04:01:50;;;;;;;2.80;2.50;;;;;;;-0.23;100.00;95352.30;107257;1272;138262;-88
2023/12/24 04:04:16;;;;;;;3.60;2.40;;;;;;;-0.22;100.00;95350.83;107520;1272;23230;-87
2023/12/24 04:06:45;;;;;;;3.50;2.70;;;;;;;-0.25;100.00;95353.30;107442;1271;25673;-87
2023/12/24 04:09:12;;;;;;;14.30;9.30;;;;;;;-0.24;100.00;95353.10;107196;1277;137909;-88
2023/12/24 04:11:39;;;;;;;29.70;19.80;;;;;;;-0.23;100.00;95357.75;107367;1277;22547;-88
2023/12/24 04:14:06;;;;;;;24.80;14.70;;;;;;;-0.23;100.00;95363.83;107352;1272;138897;-89
2023/12/24 04:16:33;;;;;;;6.20;4.00;;;;;;;-0.24;100.00;95361.19;107338;1278;22768;-88
2023/12/24 04:18:59;;;;;;;3.80;2.40;;;;;;;-0.25;100.00;95358.27;107233;1278;25663;-88
2023/12/24 04:21:27;;;;;;;3.40;2.80;;;;;;;-0.27;100.00;95352.63;107264;1270;138651;-88
2023/12/24 04:23:54;;;;;;;7.30;5.10;;;;;;;-0.27;100.00;95347.94;107533;1271;22967;-88
2023/12/24 04:26:21;;;;;;;15.20;7.70;;;;;;;-0.28;100.00;95348.70;107428;1270;138049;-88
2023/12/24 04:28:47;;;;;;;2.80;2.20;;;;;;;-0.30;100.00;95345.08;107439;1271;25348;-88
2023/12/24 04:31:14;;;;;;;3.60;2.60;;;;;;;-0.31;100.00;95345.86;107187;1272;25440;-88
2023/12/24 04:33:41;;;;;;;3.70;2.30;;;;;;;-0.32;100.00;95348.02;107357;1272;137906;-88
2023/12/24 04:36:08;;;;;;;7.00;5.50;;;;;;;-0.32;100.00;95346.14;107399;1272;22657;-88
2023/12/24 04:38:34;;;;;;;7.20;5.70;;;;;;;-0.32;100.00;95347.13;107161;1278;137897;-88
2023/12/24 04:41:01;;;;;;;7.80;4.80;;;;;;;-0.32;100.00;95343.58;107393;1273;23003;-87
2023/12/24 04:43:28;;;;;;;3.90;2.40;;;;;;;-0.33;100.00;95340.59;107341;1272;25665;-88
2023/12/24 04:45:58;;;;;;;1.60;1.50;;;;;;;-0.34;100.00;95343.70;107201;1272;137869;-88
2023/12/24 04:48:24;;;;;;;9.90;4.40;;;;;;;-0.33;100.00;95339.00;107395;1273;22544;-88
2023/12/24 04:50:51;;;;;;;5.40;2.70;;;;;;;-0.32;100.00;95335.87;107322;1272;138510;-88
2023/12/24 04:53:18;;;;;;;92.40;33.90;;;;;;;-0.32;100.00;95335.20;107260;1278;22538;-88
2023/12/24 04:55:45;;;;;;;164.20;58.00;;;;;;;-0.30;100.00;95338.79;107248;1272;138439;-88
2023/12/24 04:58:12;;;;;;;45.40;18.00;;;;;;;-0.28;100.00;95340.17;107492;1272;22579;-88
2023/12/24 05:00:38;;;;;;;17.10;7.00;;;;;;;-0.27;100.00;95337.05;107408;1277;22706;-89
2023/12/24 05:03:05;;;;;;;20.10;9.90;;;;;;;-0.26;100.00;95332.51;107324;1270;138081;-88
2023/12/24 05:05:32;;;;;;;34.70;18.80;;;;;;;-0.25;100.00;95327.95;107544;1277;22529;-88
2023/12/24 05:07:58;;;;;;;8.60;3.90;;;;;;;-0.25;100.00;95325.42;107351;1277;138881;-88
2023/12/24 05:10:25;;;;;;;3.90;2.10;;;;;;;-0.25;100.00;95321.86;107473;1277;23821;-88
2023/12/24 05:12:52;;;;;;;3.10;1.90;;;;;;;-0.24;100.00;95321.93;107399;1266;22872;-88
2023/12/24 05:15:18;;;;;;;4.40;3.40;;;;;;;-0.23;100.00;95321.85;107383;1272;137793;-88
2023/12/24 05:17:45;;;;;;;2.60;1.70;;;;;;;-0.21;100.00;95328.06;107439;1270;23355;-88
2023/12/24 05:20:12;;;;;;;1.30;1.20;;;;;;;-0.19;100.00;95324.02;107275;1275;136954;-88
2023/12/24 05:22:38;;;;;;;1.40;1.30;;;;;;;-0.19;100.00;95321.92;107351;1272;22586;-88
2023/12/24 05:25:05;;;;;;;5.30;3.10;;;;;;;-0.18;100.00;95329.34;107346;1278;26692;-89
2023/12/24 05:27:33;;;;;;;8.80;4.70;;;;;;;-0.17;100.00;95326.49;107174;1270;138460;-89
2023/12/24 05:29:59;;;;;;;3.80;3.30;;;;;;;-0.15;100.00;95318.55;107474;1272;25438;-88
2023/12/24 05:32:26;;;;;;;6.50;4.40;;;;;;;-0.16;100.00;95321.85;107278;1265;138032;-88
2023/12/24 05:34:53;;;;;;;6.00;3.70;;;;;;;-0.15;100.00;95325.86;107403;1272;24354;-88
2023/12/24 05:37:19;;;;;;;6.90;6.00;;;;;;;-0.12;100.00;95324.67;107366;1272;22754;-89
2023/12/24 05:39:46;;;;;;;8.10;6.20;;;;;;;-0.10;100.00;95315.80;107371;1278;138048;-88
2023/12/24 05:42:13;;;;;;;7.20;5.90;;;;;;;-0.08;100.00;95314.09;107603;1275;22641;-87
2023/12/24 05:44:41;;;;;;;6.60;5.70;;;;;;;-0.05;100.00;95322.77;107228;1273;138850;-88
2023/12/24 05:47:11;;;;;;;8.00;5.90;;;;;;;-0.02;100.00;95332.98;107412;1269;24221;-87
2023/12/24 05:49:38;;;;;;;6.70;5.70;;;;;;;-0.01;100.00;95334.04;107578;1278;22557;-88
2023/12/24 05:52:05;;;;;;;6.20;4.90;;;;;;;-0.01;100.00;95339.30;107294;1270;137998;-88
2023/12/24 05:54:31;;;;;;;7.00;4.70;;;;;;;-0.03;100.00;95337.92;107337;1277;22538;-87
2023/12/24 05:56:58;;;;;;;9.50;5.40;;;;;;;-0.03;100.00;95341.05;107418;1270;137898;-87
2023/12/24 05:59:25;;;;;;;8.40;5.70;;;;;;;-0.02;100.00;95345.20;107451;1274;24098;-88
2023/12/24 06:01:51;;;;;;;10.20;6.00;;;;;;;-0.01;100.00;95346.45;107277;1272;139422;-87
2023/12/24 06:04:18;;;;;;;9.80;7.60;;;;;;;0.01;100.00;95343.12;107434;1278;26804;-88
2023/12/24 06:06:45;;;;;;;8.40;5.70;;;;;;;0.01;100.00;95345.33;107624;1271;22666;-88
2023/12/24 06:09:11;;;;;;;10.20;5.80;;;;;;;0.02;100.00;95346.76;107339;1272;138124;-87
2023/12/24 06:11:38;;;;;;;8.20;5.50;;;;;;;0.04;100.00;95348.73;107520;1273;22527;-88
2023/12/24 06:14:04;;;;;;;8.20;5.70;;;;;;;0.03;100.00;95351.41;107405;1277;137884;-88
2023/12/24 06:16:31;;;;;;;8.40;5.30;;;;;;;0.03;100.00;95351.44;107437;1273;22625;-88
2023/12/24 06:18:58;;;;;;;11.70;6.30;;;;;;;0.02;100.00;95352.36;107537;1272;26428;-90
2023/12/24 06:21:24;;;;;;;8.40;5.20;;;;;;;0.00;100.00;95348.79;107281;1277;138393;-89
2023/12/24 06:23:52;;;;;;;8.10;5.20;;;;;;;0.01;100.00;95352.16;107429;1255;22582;-89
2023/12/24 06:26:19;;;;;;;7.00;4.70;;;;;;;0.02;100.00;95356.25;107037;1260;138611;-89
2023/12/24 06:28:45;;;;;;;6.80;5.50;;;;;;;0.03;100.00;95356.73;107502;1272;22593;-88
2023/12/24 06:31:19;;;;;;;6.50;5.30;;;;;;;0.01;100.00;95352.31;107407;1274;22649;-89
2023/12/24 06:33:46;;;;;;;7.20;5.50;;;;;;;-0.01;100.00;95351.20;107199;1278;137867;-89
2023/12/24 06:36:13;;;;;;;6.50;4.70;;;;;;;-0.02;100.00;95354.53;107398;1277;25415;-88
2023/12/24 06:38:39;;;;;;;5.60;4.70;;;;;;;-0.01;100.00;95358.73;107370;1269;139119;-89
2023/12/24 06:41:06;;;;;;;5.80;4.10;;;;;;;0.02;100.00;95362.09;107506;1278;22527;-90
2023/12/24 06:43:33;;;;;;;7.00;4.70;;;;;;;-0.00;100.00;95353.58;107464;1278;24229;-88
2023/12/24 06:46:00;;;;;;;7.30;5.10;;;;;;;-0.02;100.00;95342.67;107281;1277;137678;-89
2023/12/24 06:48:27;;;;;;;6.20;4.80;;;;;;;-0.01;100.00;95346.30;107540;1276;25413;-91
2023/12/24 06:50:53;;;;;;;6.70;4.50;;;;;;;0.03;100.00;95343.65;107015;1278;138963;-89
2023/12/24 06:53:20;;;;;;;4.30;3.90;;;;;;;0.04;100.00;95339.89;107339;1278;24743;-88
2023/12/24 06:55:47;;;;;;;13.60;10.30;;;;;;;-0.01;100.00;95338.77;107155;1272;138426;-88
2023/12/24 06:58:13;;;;;;;13.60;9.70;;;;;;;-0.04;100.00;95342.17;107430;1272;24066;-89
2023/12/24 07:00:40;;;;;;;14.10;9.10;;;;;;;-0.03;100.00;95342.41;107332;1272;25298;-88
2023/12/24 07:03:07;;;;;;;10.90;8.00;;;;;;;0.00;100.00;95343.84;107184;1275;138606;-88
2023/12/24 07:05:35;;;;;;;13.10;9.70;;;;;;;0.04;100.00;95344.84;107373;1276;22564;-88
2023/12/24 07:08:02;;;;;;;14.80;9.30;;;;;;;0.07;100.00;95347.81;107374;1268;138585;-88
2023/12/24 07:10:29;;;;;;;13.60;9.30;;;;;;;0.09;100.00;95349.33;107167;1272;22496;-88
2023/12/24 07:12:56;;;;;;;13.30;10.30;;;;;;;0.07;100.00;95344.93;107264;1272;25413;-88
2023/12/24 07:15:23;;;;;;;14.30;10.80;;;;;;;0.07;100.00;95341.86;107091;1278;138133;-88
2023/12/24 07:17:50;;;;;;;18.20;11.70;;;;;;;0.06;100.00;95343.17;107290;1278;24368;-89
2023/12/24 07:20:17;;;;;;;15.90;10.50;;;;;;;0.07;100.00;95345.23;107257;1275;138327;-88
2023/12/24 07:22:44;;;;;;;14.40;10.20;;;;;;;0.10;100.00;95336.27;107452;1275;22705;-89
2023/12/24 07:25:10;;;;;;;11.80;8.70;;;;;;;0.13;100.00;95334.81;107311;1278;22624;-88
2023/12/24 07:27:37;;;;;;;12.00;9.10;;;;;;;0.15;100.00;95341.08;107178;1271;138457;-88
2023/12/24 07:30:04;;;;;;;9.80;8.60;;;;;;;0.15;100.00;95330.32;107375;1270;22590;-87
2023/12/24 07:32:31;;;;;;;10.80;8.80;;;;;;;0.15;100.00;95330.30;107169;1270;138594;-88
2023/12/24 07:34:57;;;;;;;23.40;14.40;;;;;;;0.15;100.00;95324.20;107279;1273;22553;-88
2023/12/24 07:37:24;;;;;;;60.60;29.50;;;;;;;0.17;100.00;95320.28;107368;1277;23133;-87
2023/12/24 07:39:50;;;;;;;42.60;23.50;;;;;;;0.20;100.00;95311.36;107238;1272;138846;-88
2023/12/24 07:42:17;;;;;;;31.70;22.60;;;;;;;0.21;100.00;95312.62;107281;1272;22589;-87
2023/12/24 07:44:47;;;;;;;22.60;16.60;;;;;;;0.20;100.00;95310.77;107271;1271;139251;-87
2023/12/24 07:47:14;;;;;;;26.80;19.20;;;;;;;0.18;100.00;95305.33;107209;1273;25357;-87
2023/12/24 07:49:41;;;;;;;29.70;22.70;;;;;;;0.19;100.00;95301.87;107458;1275;22650;-88
2023/12/24 07:52:08;;;;;;;28.00;22.50;;;;;;;0.21;100.00;95302.23;107338;1275;22562;-89
2023/12/24 07:54:34;;;;;;;32.50;24.60;;;;;;;0.24;100.00;95306.32;107464;1275;24501;-88
2023/12/24 07:57:01;;;;;;;28.10;21.90;;;;;;;0.24;100.00;95302.52;107324;1272;138563;-88
2023/12/24 07:59:28;;;;;;;31.40;23.00;;;;;;;0.26;100.00;95295.63;107399;1273;22560;-88
2023/12/24 08:01:54;;;;;;;36.20;26.40;;;;;;;0.26;100.00;95293.21;107482;1276;138175;-90
2023/12/24 08:04:21;;;;;;;63.30;42.70;;;;;;;0.25;100.00;95301.52;107529;1278;22692;-89
2023/12/24 08:06:50;;;;;;;46.80;36.10;;;;;;;0.23;100.00;95290.60;107765;1272;22737;-88
2023/12/24 08:09:17;;;;;;;46.70;34.90;;;;;;;0.25;100.00;95292.40;107509;1270;138599;-90
2023/12/24 08:11:44;;;;;;;38.80;28.70;;;;;;;0.27;100.00;95294.41;107662;1274;24061;-87
2023/12/24 08:14:11;;;;;;;47.20;31.30;;;;;;;0.31;100.00;95290.34;107543;1270;138601;-88
2023/12/24 08:16:38;;;;;;;15.90;10.90;;;;;;;0.34;100.00;95295.73;107305;1278;22565;-89
2023/12/24 08:19:05;;;;;;;15.50;9.00;;;;;;;0.42;100.00;95297.86;107370;1278;22642;-88
2023/12/24 08:21:32;;;;;;;24.30;8.80;;;;;;;0.50;100.00;95299.09;107447;1278;137870;-89
2023/12/24 08:23:59;;;;;;;10.70;5.20;;;;;;;0.59;100.00;95298.42;107600;1272;23437;-89
2023/12/24 08:26:26;;;;;;;10.80;5.60;;;;;;;0.68;100.00;95310.38;107449;1278;138755;-89
2023/12/24 08:28:52;;;;;;;7.80;5.10;;;;;;;0.77;100.00;95313.23;107425;1278;22762;-89
2023/12/24 08:31:20;;;;;;;6.80;5.20;;;;;;;0.85;100.00;95314.81;107345;1256;22612;-89
2023/12/24 08:33:50;;;;;;;8.10;6.90;;;;;;;0.93;100.00;95320.86;107409;1270;137752;-90
2023/12/24 08:36:17;;;;;;;4.20;3.70;;;;;;;0.99;100.00;95322.55;107304;1278;22563;-89
2023/12/24 08:38:49;;;;;;;5.80;5.00;;;;;;;1.03;100.00;95326.86;107320;1278;138374;-90
2023/12/24 08:41:19;;;;;;;12.20;10.90;;;;;;;1.07;100.00;95326.95;107223;1278;25464;-90
2023/12/24 08:43:46;;;;;;;9.60;8.20;;;;;;;1.16;100.00;95325.42;107145;1269;138185;-89
2023/12/24 08:46:14;;;;;;;8.00;7.10;;;;;;;1.24;100.00;95328.76;107648;1273;22533;-90
2023/12/24 08:48:44;;;;;;;8.30;7.30;;;;;;;1.30;100.00;95329.70;107704;1278;25110;-89
2023/12/24 08:51:14;;;;;;;7.30;5.70;;;;;;;1.37;100.00;95336.02;107325;1275;137694;-89
2023/12/24 08:53:49;;;;;;;9.10;5.90;;;;;;;1.43;100.00;95332.80;107590;1278;25294;-89
2023/12/24 08:56:16;;;;;;;7.50;6.60;;;;;;;1.50;100.00;95336.10;107308;1278;138227;-90
2023/12/24 08:58:42;;;;;;;7.50;5.90;;;;;;;1.56;100.00;95338.56;107253;1272;25328;-90
2023/12/24 09:01:09;;;;;;;11.00;8.40;;;;;;;1.64;100.00;95341.84;107635;1278;25340;-90
2023/12/24 09:03:36;;;;;;;9.80;8.10;;;;;;;1.71;100.00;95343.83;107402;1278;137820;-89
2023/12/24 09:06:02;;;;;;;69.40;44.00;;;;;;;1.76;100.00;95342.30;107298;1278;22766;-90
2023/12/24 09:08:29;;;;;;;30.90;21.00;;;;;;;1.81;100.00;95342.38;107206;1278;138101;-90
2023/12/24 09:10:56;;;;;;;14.10;10.60;;;;;;;1.88;100.00;95340.70;107299;1278;23919;-91
2023/12/24 09:13:23;;;;;;;9.30;6.80;;;;;;;1.94;100.00;95344.38;107346;1275;22763;-90
2023/12/24 09:15:49;;;;;;;9.00;6.00;;;;;;;2.00;100.00;95343.03;107188;1271;138239;-91
2023/12/24 09:18:16;;;;;;;8.30;5.70;;;;;;;2.07;100.00;95338.92;107242;1275;23062;-90
2023/12/24 09:20:42;;;;;;;7.20;4.30;;;;;;;2.15;100.00;95333.39;107305;1278;138319;-90
2023/12/24 09:23:09;;;;;;;8.80;7.90;;;;;;;2.22;100.00;95332.37;107370;1275;22541;-90
2023/12/24 09:25:36;;;;;;;27.50;17.60;;;;;;;2.29;100.00;95333.80;107160;1273;24233;-90
2023/12/24 09:28:02;;;;;;;36.50;20.90;;;;;;;2.36;100.00;95328.38;108330;1278;137906;-90
2023/12/24 09:30:29;;;;;;;27.90;16.50;;;;;;;2.43;100.00;95328.54;107388;1278;23028;-91
2023/12/24 09:32:56;;;;;;;23.80;13.10;;;;;;;2.49;100.00;95329.85;107265;1278;139907;-90
2023/12/24 09:35:23;;;;;;;13.20;7.50;;;;;;;2.56;100.00;95328.39;107308;1275;24290;-90
2023/12/24 09:37:49;;;;;;;11.20;6.80;;;;;;;2.63;100.00;95330.27;107433;1278;138187;-90
2023/12/24 09:40:17;;;;;;;10.10;5.90;;;;;;;2.68;100.00;95332.86;107468;1278;24601;-90
2023/12/24 09:42:43;;;;;;;6.10;4.40;;;;;;;2.73;100.00;95327.63;107499;1275;22552;-90
2023/12/24 09:45:11;;;;;;;6.40;4.30;;;;;;;2.83;100.00;95323.88;107588;1278;138587;-89
2023/12/24 09:47:38;;;;;;;4.10;2.80;;;;;;;2.93;100.00;95320.40;107447;1278;23165;-88
2023/12/24 09:50:05;;;;;;;14.90;7.50;;;;;;;3.00;100.00;95323.67;107369;1257;137880;-90
2023/12/24 09:52:33;;;;;;;16.70;7.60;;;;;;;3.04;100.00;95317.29;107634;1270;25279;-91
2023/12/24 09:55:01;;;;;;;23.70;10.40;;;;;;;3.08;100.00;95320.27;107575;1273;22899;-90
2023/12/24 09:57:28;;;;;;;57.30;31.80;;;;;;;3.11;100.00;95318.93;107444;1279;138690;-90
2023/12/24 09:59:54;;;;;;;287.70;139.80;;;;;;;3.14;100.00;95325.27;107481;1272;22548;-91
2023/12/24 10:02:23;;;;;;;91.10;51.50;;;;;;;3.17;100.00;95318.12;107541;1268;138597;-90
2023/12/24 10:04:50;;;;;;;28.70;13.40;;;;;;;3.20;100.00;95326.33;107522;1277;22595;-90
2023/12/24 10:07:17;;;;;;;30.30;12.20;;;;;;;3.25;100.00;95325.81;107412;1275;22683;-91
2023/12/24 10:09:46;;;;;;;17.30;8.70;;;;;;;3.28;100.00;95320.21;107737;1272;138070;-91
2023/12/24 10:12:13;;;;;;;19.90;11.70;;;;;;;3.30;100.00;95318.02;107478;1275;22647;-90
2023/12/24 10:14:41;;;;;;;31.90;18.80;;;;;;;3.37;100.00;95316.00;107341;1278;138834;-91
2023/12/24 10:17:08;;;;;;;41.70;14.10;;;;;;;3.40;100.00;95311.53;107583;1262;22623;-91
2023/12/24 10:19:35;;;;;;;23.50;10.40;;;;;;;3.42;100.00;95308.09;107424;1271;22561;-90
2023/12/24 10:22:08;;;;;;;23.70;10.10;;;;;;;3.44;100.00;95308.40;107414;1277;137935;-90
2023/12/24 10:24:41;;;;;;;23.60;11.40;;;;;;;3.45;100.00;95307.02;107572;1278;24197;-91
2023/12/24 10:27:10;;;;;;;21.20;15.40;;;;;;;3.48;100.00;95308.41;107464;1278;139597;-91
2023/12/24 10:29:38;;;;;;;12.40;6.10;;;;;;;3.51;100.00;95307.60;107689;1277;22646;-91
2023/12/24 10:32:05;;;;;;;22.50;7.30;;;;;;;3.55;100.00;95298.15;107429;1278;138122;-90
2023/12/24 10:34:33;;;;;;;17.60;7.20;;;;;;;3.59;100.00;95292.92;107466;1273;24166;-91
2023/12/24 10:37:16;;;;;;;26.20;12.90;;;;;;;3.61;100.00;95299.49;107473;1278;22569;-90
2023/12/24 10:39:44;;;;;;;24.80;16.80;;;;;;;3.65;100.00;95298.13;107252;1275;139392;-90
2023/12/24 10:42:11;;;;;;;19.10;11.30;;;;;;;3.66;100.00;95298.80;107450;1278;22596;-91
2023/12/24 10:44:39;;;;;;;40.50;14.90;;;;;;;3.70;100.00;95300.65;107357;1278;138588;-91
2023/12/24 10:47:09;;;;;;;26.40;10.50;;;;;;;3.72;100.00;95294.55;107327;1278;23303;-90
2023/12/24 10:49:36;;;;;;;24.60;9.00;;;;;;;3.74;100.00;95298.16;107320;1278;26584;-90
2023/12/24 10:52:03;;;;;;;56.10;32.20;;;;;;;3.77;100.00;95291.87;107482;1274;138352;-91
2023/12/24 10:54:29;;;;;;;72.50;35.70;;;;;;;3.80;100.00;95299.18;107530;1273;22536;-91
2023/12/24 10:57:05;;;;;;;34.30;17.70;;;;;;;3.82;100.00;95298.27;107345;1278;138244;-90
2023/12/24 11:00:06;;;;;;;30.50;21.00;;;;;;;3.86;100.00;95294.10;107361;1272;22616;-91
2023/12/24 11:02:35;;;;;;;45.20;15.70;;;;;;;3.89;100.00;95286.70;107347;1272;137960;-89
2023/12/24 11:05:02;;;;;;;31.10;8.80;;;;;;;3.92;100.00;95290.02;107388;1272;22561;-89
2023/12/24 11:07:34;;;;;;;31.90;10.60;;;;;;;3.95;100.00;95289.55;107350;1278;22633;-90
2023/12/24 11:10:02;;;;;;;19.80;7.40;;;;;;;3.97;100.00;95294.80;107187;1272;138244;-90
2023/12/24 11:12:31;;;;;;;13.30;5.20;;;;;;;3.99;100.00;95289.79;107210;1276;25428;-90